This is the latest recevied weather packets stored in our database for station/object KC3SPD-13. If no packets are shown the sender has not sent any weather packets the latest 10 day(s).
| Time | Temp. | Humidity | Pressure | Rain* | Wind** | Luminosity | Snow |
|---|---|---|---|---|---|---|---|
| 1777362004 | 11.67° C | 73% | 970.1 hPa | 0 mm | - | 0 W/m² | - |
| 1777358704 | 11.67° C | 70% | 970.8 hPa | 0 mm | - | 0 W/m² | - |
| 1777356904 | 12.22° C | 69% | 970.9 hPa | 0 mm | - | 0 W/m² | - |
| 1777356603 | 12.22° C | 69% | 970.9 hPa | 0 mm | - | 0 W/m² | - |
| 1777355404 | 12.22° C | 71% | 971 hPa | 0 mm | - | 0 W/m² | - |
| 1777354804 | 12.22° C | 70% | 971 hPa | 0 mm | - | 0 W/m² | - |
| 1777341304 | 14.44° C | 63% | 972.5 hPa | 0 mm | - | 0 W/m² | - |
| 1777333804 | 17.22° C | 54% | 972.2 hPa | 0 mm | - | 0 W/m² | - |
| 1777332604 | 18.33° C | 52% | 972.3 hPa | 0 mm | - | 0 W/m² | - |
| 1777331404 | 18.89° C | 48% | 972.5 hPa | 0 mm | - | 0 W/m² | - |
| 1777331104 | 19.44° C | 49% | 972.6 hPa | 0 mm | - | 0 W/m² | - |
| 1777329604 | 21.11° C | 43% | 972.5 hPa | 0 mm | - | 0 W/m² | - |
| 1777327505 | 22.78° C | 42% | 972 hPa | 0 mm | - | 0 W/m² | - |
| 1777320304 | 22.78° C | 40% | 972.4 hPa | 0 mm | - | 0 W/m² | - |
| 1777319104 | 22.78° C | 41% | 972.5 hPa | 0 mm | - | 0 W/m² | - |
| 1777318204 | 22.22° C | 42% | 972.8 hPa | 0 mm | - | 0 W/m² | - |
| 1777316104 | 21.67° C | 41% | 973.1 hPa | 0 mm | - | 0 W/m² | - |
| 1777309804 | 17.78° C | 56% | 974 hPa | 0 mm | - | 0 W/m² | - |
| 1777309504 | 17.78° C | 56% | 974.1 hPa | 0 mm | - | 0 W/m² | - |
| 1777308904 | 17.22° C | 57% | 974.2 hPa | 0 mm | - | 0 W/m² | - |
| 1777308304 | 16.67° C | 60% | 974.5 hPa | 0 mm | - | 0 W/m² | - |
| 1777306804 | 16.11° C | 63% | 974.5 hPa | 0 mm | - | 0 W/m² | - |
| 1777305904 | 15.56° C | 66% | 974.7 hPa | 0 mm | - | 0 W/m² | - |
| 1777305603 | 15.56° C | 66% | 974.6 hPa | 0 mm | - | 0 W/m² | - |
| 1777305304 | 15° C | 67% | 974.6 hPa | 0 mm | - | 0 W/m² | - |
* Rain latest hour (hover to see other rain measurements)
** Current wind speed in m/s (hover to see current wind gust speed)